Pagrindinis puslapis
METAR-TAF:

METAR-TAF

Oro uostai :

Bradshaw Army Air Field

Bradshaw, Havajai, Jungtinės Amerikos Valstijos

platuma: 19-47N, ilguma: 155-33W, Aukštis: 1887 m

Dabartinis oras

Ataskaita buvo paskelbta 1 valandą ir 17 minutes, ne 07:58 UTC
Vėjas 7 kt iš Pietų/Pietryčių
Temperatūra 13°C
Drėgmė 88%
Slėgis 1026 hPa
Matomumas: 16.1 km
Giedras dangus

METAR: PHSF 180758Z AUTO 16007KT 10SM CLR 13/11 A3030 RMK AO2 SLP143 T01280111 $

Laikas: 23:15 (09:15 UTC)


TAF: trūkstamas

Orai ataskaitas ir orų prognozės (METAR, TAF).

turimą stotys yra geltonos ir raudonos taškus žemėlapyje.

Perkelti pele per norėdami pamatyti stoties vardą.

Tada spustelėkite, norėdami matyti oro stebėjimo ir prognozės.

Norėdami pakeisti žemėlapį: spustelėkite ant žalios mygtukų su juodo kryžiaus žemyn,; žalią mygtuką su brūkšneliu, jei norite nutolinti; arba žalių rodyklių gretimoms žemėlapius.


METAR-TAF: